Time;durP1;ratioP1;P1;durP2;ratioP2;P2;SDS_P1;SDS_P2;PMS_P1;PMS_P2;Temp;Humidity;BMP_temperature;BMP_pressure;BME280_temperature;BME280_humidity;BME280_pressure;Samples;Min_cycle;Max_cycle;Signal;HPM_P1;HPM_P2
2022/11/18 00:01:19;;;;;;;0.82;0.80;;;;;;;19.00;51.90;99480.47;5025976;28;20093;-60
2022/11/18 00:03:45;;;;;;;1.95;1.00;;;;;;;18.99;52.31;99484.22;5025813;28;20030;-61
2022/11/18 00:06:12;;;;;;;1.00;0.80;;;;;;;18.98;52.31;99483.34;5025844;28;20057;-60
2022/11/18 00:08:37;;;;;;;1.48;0.80;;;;;;;18.99;52.23;99497.69;5025945;28;20096;-60
2022/11/18 00:11:05;;;;;;;1.20;0.95;;;;;;;18.98;52.31;99498.69;5025889;28;20033;-61
2022/11/18 00:16:14;;;;;;;0.70;0.60;;;;;;;18.96;52.34;99506.97;5025442;28;20048;-60
2022/11/18 00:18:39;;;;;;;1.20;0.80;;;;;;;18.96;51.94;99504.28;5025451;28;20081;-60
2022/11/18 00:21:07;;;;;;;1.88;1.05;;;;;;;18.94;52.12;99506.34;5024485;28;20069;-59
2022/11/18 00:23:33;;;;;;;1.37;0.93;;;;;;;18.91;52.13;99504.06;5021299;28;20097;-61
2022/11/18 00:26:04;;;;;;;1.73;0.80;;;;;;;18.94;51.91;99517.13;5006061;28;20747;-60
2022/11/18 00:28:30;;;;;;;0.93;0.70;;;;;;;18.87;52.26;99508.22;5006250;28;20018;-61
2022/11/18 00:31:03;;;;;;;1.13;0.77;;;;;;;18.94;52.21;99521.69;5023312;28;20018;-60
2022/11/18 00:33:29;;;;;;;1.80;1.00;;;;;;;18.85;52.26;99510.25;5024478;28;20053;-60
2022/11/18 00:35:54;;;;;;;0.75;0.75;;;;;;;18.83;52.21;99506.94;5025363;28;20036;-58
2022/11/18 00:38:20;;;;;;;0.98;0.85;;;;;;;18.92;52.20;99527.28;5025300;28;20029;-61
2022/11/18 00:40:45;;;;;;;1.85;1.02;;;;;;;18.89;52.09;99527.66;5025296;28;20842;-61
2022/11/18 00:43:10;;;;;;;1.20;0.85;;;;;;;18.91;52.24;99530.19;5025511;28;20052;-61
2022/11/18 00:45:35;;;;;;;1.60;0.95;;;;;;;18.91;52.02;99530.19;5024976;28;20046;-60
2022/11/18 00:48:01;;;;;;;1.30;0.80;;;;;;;18.89;52.08;99530.38;5007094;28;20074;-61
2022/11/18 00:50:27;;;;;;;0.82;0.63;;;;;;;18.89;52.05;99540.31;5005170;28;20034;-60
2022/11/18 00:52:52;;;;;;;1.08;0.90;;;;;;;18.89;52.19;99534.91;5005541;28;20030;-60
2022/11/18 00:55:17;;;;;;;1.17;0.70;;;;;;;18.89;52.19;99541.13;5005502;28;20036;-61
2022/11/18 00:57:42;;;;;;;1.13;1.02;;;;;;;18.88;52.24;99544.03;5005581;28;20612;-61
2022/11/18 01:00:11;;;;;;;1.25;0.80;;;;;;;18.85;52.26;99537.19;5005140;28;20449;-60
2022/11/18 01:02:37;;;;;;;2.25;1.10;;;;;;;18.87;52.06;99542.38;5005414;28;20030;-60
2022/11/18 01:05:03;;;;;;;1.33;1.00;;;;;;;18.85;52.33;99544.44;5004810;28;20048;-60
2022/11/18 01:07:28;;;;;;;2.30;1.05;;;;;;;18.84;52.30;99546.31;5005272;28;20026;-60
2022/11/18 01:09:54;;;;;;;1.52;0.93;;;;;;;18.86;51.99;99554.16;5005335;28;20077;-60
2022/11/18 01:15:04;;;;;;;1.10;0.80;;;;;;;18.78;52.03;99551.69;5005332;28;20037;-61
2022/11/18 01:17:30;;;;;;;1.42;0.90;;;;;;;18.85;52.05;99565.97;5004499;28;20058;-61
2022/11/18 01:19:55;;;;;;;1.23;0.65;;;;;;;18.85;52.22;99563.28;5003976;28;20090;-60
2022/11/18 01:22:20;;;;;;;2.50;1.08;;;;;;;18.85;52.00;99565.97;5018195;28;20045;-61
2022/11/18 01:24:46;;;;;;;2.00;0.90;;;;;;;18.82;51.86;99559.16;5024590;28;20049;-61
2022/11/18 01:27:11;;;;;;;1.33;0.93;;;;;;;18.83;52.22;99557.28;5024294;28;20022;-61
2022/11/18 01:29:36;;;;;;;1.63;0.80;;;;;;;18.83;52.03;99568.06;5024313;28;20041;-61
2022/11/18 01:32:01;;;;;;;0.93;0.80;;;;;;;18.83;52.06;99571.56;5024217;28;20041;-61
2022/11/18 01:34:28;;;;;;;1.85;0.90;;;;;;;18.82;51.81;99572.63;5023874;28;20034;-61
2022/11/18 01:36:53;;;;;;;0.98;0.88;;;;;;;18.82;51.96;99572.63;5024082;28;20029;-61
2022/11/18 01:39:18;;;;;;;1.33;0.85;;;;;;;18.82;51.93;99578.00;5024385;28;20031;-61
2022/11/18 01:41:44;;;;;;;0.98;0.82;;;;;;;18.77;51.91;99575.06;5024356;28;20022;-61
2022/11/18 01:44:46;;;;;;;1.08;0.80;;;;;;;18.80;52.05;99585.44;5023469;28;20053;-61
2022/11/18 01:47:12;;;;;;;0.93;0.82;;;;;;;18.81;52.09;99578.19;5002555;28;20395;-61
2022/11/18 01:49:37;;;;;;;1.10;1.00;;;;;;;18.79;52.05;99586.47;5004088;28;20030;-61
2022/11/18 01:52:03;;;;;;;1.00;0.90;;;;;;;18.79;51.82;99586.47;4986759;28;20034;-61
2022/11/18 01:54:33;;;;;;;0.70;0.63;;;;;;;18.78;51.85;99584.81;5004420;28;20077;-61
2022/11/18 01:57:00;;;;;;;1.20;1.00;;;;;;;18.79;52.05;99594.56;5005160;28;20090;-61
2022/11/18 01:59:30;;;;;;;1.00;0.90;;;;;;;18.78;52.06;99584.81;5006462;28;20025;-61
2022/11/18 02:01:55;;;;;;;1.50;1.10;;;;;;;18.77;52.00;99591.22;5023721;28;20029;-61
2022/11/18 02:04:22;;;;;;;0.98;0.70;;;;;;;18.77;52.07;99598.47;5005798;28;20026;-61
2022/11/18 02:06:47;;;;;;;1.88;0.90;;;;;;;18.76;52.26;99591.41;5023753;28;20470;-61
2022/11/18 02:09:14;;;;;;;2.03;1.00;;;;;;;18.75;52.04;99598.66;5023798;28;20053;-61
2022/11/18 02:11:54;;;;;;;2.03;0.90;;;;;;;18.68;51.97;99589.69;5005993;28;20060;-60
2022/11/18 02:14:27;;;;;;;1.70;1.00;;;;;;;18.75;51.73;99604.06;5023812;28;20038;-61
2022/11/18 02:17:08;;;;;;;1.50;0.73;;;;;;;18.74;52.06;99605.09;5011809;28;20056;-61
2022/11/18 02:20:11;;;;;;;1.25;0.93;;;;;;;18.65;52.10;99592.78;5003578;28;20044;-60
2022/11/18 02:22:55;;;;;;;1.50;0.93;;;;;;;18.72;52.07;99610.66;4998427;28;20153;-61
2022/11/18 02:25:30;;;;;;;1.88;0.80;;;;;;;18.72;51.82;99615.22;5023580;28;20026;-61
2022/11/18 02:28:20;;;;;;;1.40;1.10;;;;;;;18.71;52.08;99625.16;5006031;28;20025;-61
2022/11/18 02:30:57;;;;;;;1.20;1.10;;;;;;;18.68;51.86;99622.81;5023533;28;20102;-61
2022/11/18 02:33:27;;;;;;;3.50;1.05;;;;;;;18.61;52.02;99610.38;5023726;28;20022;-60
2022/11/18 02:36:01;;;;;;;1.27;0.88;;;;;;;18.68;51.82;99620.13;5005948;28;20028;-61
2022/11/18 02:38:33;;;;;;;1.63;1.00;;;;;;;18.68;52.19;99622.00;5005968;28;20809;-61
2022/11/18 02:41:04;;;;;;;2.58;0.93;;;;;;;18.68;52.08;99622.00;5023496;28;20029;-61
2022/11/18 02:43:35;;;;;;;1.20;1.00;;;;;;;18.66;51.99;99624.88;5023632;28;20030;-60
2022/11/18 02:46:06;;;;;;;0.90;0.82;;;;;;;18.65;52.01;99628.63;5001089;28;20033;-60
2022/11/18 02:48:32;;;;;;;1.58;1.00;;;;;;;18.66;51.73;99640.22;4986451;28;20030;-60
2022/11/18 02:50:58;;;;;;;1.92;1.25;;;;;;;18.59;51.81;99631.25;4989362;28;20033;-59
2022/11/18 02:53:27;;;;;;;1.27;0.88;;;;;;;18.64;52.05;99644.94;5005864;28;20510;-60
2022/11/18 02:55:53;;;;;;;1.30;0.90;;;;;;;18.65;52.04;99643.94;5006696;28;20026;-60
2022/11/18 02:58:19;;;;;;;0.88;0.80;;;;;;;18.65;51.94;99643.94;5009531;28;20041;-61
2022/11/18 03:00:54;;;;;;;1.23;1.10;;;;;;;18.64;51.92;99643.09;5027183;28;20081;-61
2022/11/18 03:03:31;;;;;;;1.63;1.15;;;;;;;18.63;52.19;99646.81;5027401;28;20443;-60
2022/11/18 03:06:24;;;;;;;1.70;1.20;;;;;;;18.63;51.82;99646.00;5026672;28;20209;-60
2022/11/18 03:09:02;;;;;;;1.70;1.17;;;;;;;18.63;52.05;99646.00;5027073;28;20040;-61
2022/11/18 03:11:30;;;;;;;1.15;0.90;;;;;;;18.62;51.71;99657.78;5009481;28;20060;-61
2022/11/18 03:14:13;;;;;;;2.20;0.80;;;;;;;18.62;52.00;99657.78;5009323;28;20034;-60
2022/11/18 03:17:24;;;;;;;0.90;0.90;;;;;;;18.56;51.96;99653.19;5014798;28;20065;-61
2022/11/18 03:20:20;;;;;;;2.70;1.10;;;;;;;18.60;51.91;99660.66;4908304;29;20172;-61
2022/11/18 03:23:20;;;;;;;1.42;0.90;;;;;;;18.59;51.95;99664.38;4920044;29;20052;-61
2022/11/18 03:25:58;;;;;;;1.98;1.00;;;;;;;18.59;51.78;99667.09;4911455;29;20044;-59
2022/11/18 03:28:32;;;;;;;1.20;1.08;;;;;;;18.58;52.08;99678.88;4927644;29;20465;-60
2022/11/18 03:31:02;;;;;;;2.72;1.00;;;;;;;18.57;51.89;99669.16;4926896;29;20107;-60
2022/11/18 03:33:36;;;;;;;1.13;0.80;;;;;;;18.57;52.05;99674.53;4911705;29;20044;-57
2022/11/18 03:36:04;;;;;;;0.98;0.90;;;;;;;18.47;51.95;99669.47;4926839;29;20116;-60
2022/11/18 03:38:33;;;;;;;2.00;1.07;;;;;;;18.57;51.96;99681.78;4911322;29;20103;-60
2022/11/18 03:41:00;;;;;;;1.52;1.00;;;;;;;18.56;52.03;99678.22;4911368;29;20032;-59
2022/11/18 03:43:29;;;;;;;1.20;0.82;;;;;;;18.54;52.01;99684.84;4927218;29;20236;-60
2022/11/18 03:46:06;;;;;;;1.85;0.90;;;;;;;18.55;51.98;99686.50;4926243;29;20040;-57
2022/11/18 03:48:35;;;;;;;0.85;0.80;;;;;;;18.55;51.93;99692.72;4926216;29;20024;-57
2022/11/18 03:51:05;;;;;;;1.20;0.80;;;;;;;18.47;51.85;99682.94;4968808;28;20048;-59
2022/11/18 03:53:33;;;;;;;1.50;1.20;;;;;;;18.54;52.02;99693.75;4989199;28;20045;-59
2022/11/18 03:56:05;;;;;;;1.05;0.80;;;;;;;18.53;51.87;99700.19;4988686;28;20037;-60
2022/11/18 03:58:37;;;;;;;1.35;0.85;;;;;;;18.52;51.93;99706.59;4988960;28;20029;-60
2022/11/18 04:01:23;;;;;;;1.98;1.13;;;;;;;18.52;51.73;99705.75;5006122;28;20028;-60
2022/11/18 04:03:48;;;;;;;2.63;1.00;;;;;;;18.52;52.01;99706.59;5005835;28;20022;-59
2022/11/18 04:06:28;;;;;;;1.70;1.00;;;;;;;18.51;51.93;99712.97;4988694;28;20609;-60
2022/11/18 04:08:56;;;;;;;1.40;1.30;;;;;;;18.51;51.82;99717.53;5005560;28;20057;-60
2022/11/18 04:14:19;;;;;;;1.00;0.90;;;;;;;18.49;51.69;99715.88;5006513;28;20054;-61
2022/11/18 04:16:49;;;;;;;1.13;0.75;;;;;;;18.48;51.81;99722.31;4988783;28;20034;-60
2022/11/18 04:19:14;;;;;;;1.67;1.13;;;;;;;18.48;51.88;99722.31;5005834;28;20085;-60
2022/11/18 04:21:40;;;;;;;1.23;0.88;;;;;;;18.47;52.04;99726.00;5009197;28;20058;-60
2022/11/18 04:24:05;;;;;;;1.45;0.80;;;;;;;18.47;51.50;99733.25;5025657;28;20084;-60
2022/11/18 04:26:30;;;;;;;1.55;0.90;;;;;;;18.33;51.85;99713.47;5025569;28;20021;-60
2022/11/18 04:28:56;;;;;;;1.85;1.42;;;;;;;18.45;51.92;99740.69;5025760;28;20049;-60
2022/11/18 04:31:21;;;;;;;1.40;0.75;;;;;;;18.44;51.71;99744.41;5025376;28;20030;-60
2022/11/18 04:33:46;;;;;;;2.38;0.80;;;;;;;18.44;51.68;99742.56;5025047;28;20041;-58
2022/11/18 04:36:11;;;;;;;1.30;1.00;;;;;;;18.45;51.63;99751.47;5024533;28;20041;-60
2022/11/18 04:38:37;;;;;;;1.77;0.82;;;;;;;18.43;51.95;99753.50;5025403;28;20029;-60
2022/11/18 04:41:02;;;;;;;1.20;1.10;;;;;;;18.43;52.28;99750.81;5025192;28;20029;-60
2022/11/18 04:43:27;;;;;;;1.38;0.93;;;;;;;18.42;51.79;99752.66;5025547;28;20053;-60
2022/11/18 04:45:52;;;;;;;1.40;0.95;;;;;;;18.42;51.77;99743.75;5023660;28;20025;-60
2022/11/18 04:48:18;;;;;;;1.23;0.90;;;;;;;18.41;51.95;99758.25;5025217;28;20048;-61
2022/11/18 04:50:43;;;;;;;1.05;1.00;;;;;;;18.41;51.96;99752.88;5024641;28;20038;-60
2022/11/18 04:53:08;;;;;;;1.48;1.30;;;;;;;18.41;52.08;99759.09;5024906;28;20542;-60
2022/11/18 04:55:36;;;;;;;1.55;0.95;;;;;;;18.38;51.65;99764.00;5025094;28;20089;-60
2022/11/18 04:58:02;;;;;;;1.38;0.90;;;;;;;18.24;51.67;99747.75;5007262;28;20025;-60
2022/11/18 05:00:27;;;;;;;1.58;1.17;;;;;;;18.41;51.91;99771.72;5024843;28;20029;-60
2022/11/18 05:02:53;;;;;;;1.20;0.75;;;;;;;18.39;51.77;99777.28;5024920;28;20538;-60
2022/11/18 05:05:18;;;;;;;1.17;1.08;;;;;;;18.35;51.64;99769.78;5024042;28;20022;-60
2022/11/18 05:07:43;;;;;;;1.67;1.00;;;;;;;18.36;52.05;99779.53;5024550;28;20022;-60
2022/11/18 05:10:08;;;;;;;1.30;0.90;;;;;;;18.38;51.70;99785.53;5024730;28;20030;-59
2022/11/18 05:12:49;;;;;;;1.20;1.05;;;;;;;18.37;51.85;99786.56;5007062;28;20033;-59
2022/11/18 05:15:15;;;;;;;1.65;0.95;;;;;;;18.37;51.98;99782.03;5024808;28;20032;-59
2022/11/18 05:17:41;;;;;;;1.30;1.10;;;;;;;18.31;51.61;99781.94;5023093;28;20090;-59
2022/11/18 05:20:07;;;;;;;0.98;0.88;;;;;;;18.36;51.73;99787.59;5023950;28;20053;-60
2022/11/18 05:22:32;;;;;;;1.15;0.90;;;;;;;18.34;51.88;99792.31;5024021;28;20099;-59
2022/11/18 05:24:57;;;;;;;1.50;0.98;;;;;;;18.35;51.88;99794.84;5024513;28;20057;-61
2022/11/18 05:27:23;;;;;;;0.90;0.80;;;;;;;18.35;51.59;99788.59;5024124;28;20029;-59
2022/11/18 05:29:48;;;;;;;1.67;1.00;;;;;;;18.34;52.11;99798.53;5024421;28;20029;-59
2022/11/18 05:32:13;;;;;;;0.90;0.85;;;;;;;18.34;51.69;99797.72;5023986;28;20061;-59
2022/11/18 05:34:40;;;;;;;1.25;0.88;;;;;;;18.28;51.94;99791.25;5021244;28;20059;-59
2022/11/18 05:37:05;;;;;;;1.10;0.98;;;;;;;18.33;51.54;99802.25;5019022;28;20446;-61
2022/11/18 05:39:32;;;;;;;1.67;0.82;;;;;;;18.33;51.61;99802.25;5023965;28;20493;-59
2022/11/18 05:44:41;;;;;;;1.27;0.90;;;;;;;18.35;52.10;99815.50;5018230;28;20036;-59
2022/11/18 05:47:06;;;;;;;2.38;0.80;;;;;;;18.35;51.72;99823.59;5018049;28;20085;-60
2022/11/18 05:49:31;;;;;;;2.05;1.08;;;;;;;18.35;51.87;99824.44;5022147;28;20032;-59
2022/11/18 05:51:57;;;;;;;1.35;0.90;;;;;;;18.35;51.95;99821.75;5020861;28;20029;-58
2022/11/18 05:54:22;;;;;;;1.15;0.95;;;;;;;18.36;52.01;99828.81;5022086;28;20048;-60
2022/11/18 05:56:47;;;;;;;3.22;1.00;;;;;;;18.38;51.95;99825.91;5023279;28;20061;-60
2022/11/18 05:59:14;;;;;;;4.72;1.13;;;;;;;18.34;52.24;99830.00;5023451;28;20032;-60
2022/11/18 06:01:43;;;;;;;1.20;0.85;;;;;;;18.35;51.88;99832.53;5023312;28;20026;-60
2022/11/18 06:04:25;;;;;;;1.45;0.93;;;;;;;18.37;52.04;99832.31;5022319;28;20025;-60
2022/11/18 06:06:53;;;;;;;2.38;0.93;;;;;;;18.37;52.18;99840.41;5020284;28;20034;-60
2022/11/18 06:09:22;;;;;;;0.83;0.60;;;;;;;18.37;51.89;99835.84;5023275;28;20029;-60
2022/11/18 06:11:52;;;;;;;1.08;0.80;;;;;;;18.38;52.17;99850.13;5022947;28;20271;-60
2022/11/18 06:14:22;;;;;;;2.92;0.90;;;;;;;18.37;52.17;99841.22;5023385;28;20662;-60
2022/11/18 06:16:52;;;;;;;1.33;0.82;;;;;;;18.36;52.17;99839.56;5022548;28;20041;-60
2022/11/18 06:19:17;;;;;;;1.40;1.02;;;;;;;18.37;52.29;99851.16;5005047;28;20038;-60
2022/11/18 06:21:44;;;;;;;2.03;1.08;;;;;;;18.38;52.00;99855.50;5022525;28;20054;-60
2022/11/18 06:24:09;;;;;;;1.63;0.90;;;;;;;18.37;51.99;99860.06;5005619;28;20029;-59
2022/11/18 06:26:36;;;;;;;2.17;0.90;;;;;;;18.37;52.03;99856.53;5023391;28;20022;-59
2022/11/18 06:29:02;;;;;;;1.58;0.95;;;;;;;18.37;52.08;99859.22;5005793;28;20033;-61
2022/11/18 06:31:27;;;;;;;1.73;1.08;;;;;;;18.38;52.38;99867.09;5024347;28;20088;-61
2022/11/18 06:33:52;;;;;;;1.88;0.90;;;;;;;18.35;52.17;99861.25;5026806;28;20034;-60
2022/11/18 06:36:18;;;;;;;3.00;1.00;;;;;;;18.39;52.34;99871.47;5025621;28;20065;-61
2022/11/18 06:38:43;;;;;;;2.70;0.90;;;;;;;18.39;52.34;99879.56;5027135;28;20026;-61
2022/11/18 06:41:08;;;;;;;2.05;1.17;;;;;;;18.38;52.45;99882.41;5026602;28;20061;-61
2022/11/18 06:43:40;;;;;;;1.73;1.00;;;;;;;18.28;52.44;99877.34;5026900;28;20052;-61
2022/11/18 06:48:58;;;;;;;1.17;0.82;;;;;;;18.36;52.59;99896.06;5023023;28;20045;-60
2022/11/18 06:51:24;;;;;;;1.08;0.98;;;;;;;18.30;52.38;99894.13;5016718;28;20022;-60
2022/11/18 06:53:49;;;;;;;1.42;1.10;;;;;;;18.35;52.65;99901.63;5017232;28;20486;-59
2022/11/18 06:56:16;;;;;;;1.88;0.98;;;;;;;18.37;52.39;99913.06;5014976;28;20056;-60
2022/11/18 06:58:41;;;;;;;2.05;0.98;;;;;;;18.29;52.41;99908.59;5009414;28;20550;-59
2022/11/18 07:01:20;;;;;;;3.97;1.00;;;;;;;18.34;52.66;99930.41;5026877;28;20026;-60
2022/11/18 07:03:45;;;;;;;5.32;1.10;;;;;;;18.34;52.83;99930.41;5016333;28;20026;-57
2022/11/18 07:06:13;;;;;;;2.13;1.10;;;;;;;18.29;52.89;99927.44;5025624;28;20038;-60
2022/11/18 07:08:40;;;;;;;3.93;0.80;;;;;;;18.34;53.04;99940.34;5023065;28;20678;-61
2022/11/18 07:11:08;;;;;;;3.22;1.05;;;;;;;18.35;53.08;99942.84;5000797;28;20283;-61
2022/11/18 07:13:33;;;;;;;2.20;1.10;;;;;;;18.30;52.81;99930.97;5025974;28;20046;-59
2022/11/18 07:16:19;;;;;;;2.80;1.10;;;;;;;18.36;53.09;99944.50;5022561;28;20061;-60
2022/11/18 07:18:45;;;;;;;1.20;1.10;;;;;;;18.35;52.92;99947.38;5006704;28;20041;-59
2022/11/18 07:21:13;;;;;;;2.47;1.27;;;;;;;18.39;53.09;99956.75;5006116;28;20035;-60
2022/11/18 07:23:38;;;;;;;4.35;1.08;;;;;;;18.39;52.87;99963.00;5006419;28;20411;-60
2022/11/18 07:26:04;;;;;;;2.25;1.02;;;;;;;18.27;52.79;99948.34;5007081;28;20035;-61
2022/11/18 07:28:29;;;;;;;1.90;1.05;;;;;;;18.40;52.82;99959.25;5006722;28;20025;-60
2022/11/18 07:31:02;;;;;;;2.10;1.20;;;;;;;18.35;52.83;99956.31;5006551;28;20027;-60
2022/11/18 07:33:28;;;;;;;2.50;0.90;;;;;;;18.41;52.99;99965.47;5006448;28;20100;-60
2022/11/18 07:35:53;;;;;;;2.67;1.17;;;;;;;18.33;53.04;99955.66;5006182;28;20034;-60
2022/11/18 07:38:18;;;;;;;1.30;0.85;;;;;;;18.42;52.85;99973.34;5006071;28;20031;-61
2022/11/18 07:40:44;;;;;;;4.50;1.08;;;;;;;18.42;53.12;99976.03;5006254;28;20037;-61
2022/11/18 07:43:09;;;;;;;2.38;1.00;;;;;;;18.43;52.92;99974.19;5005976;28;20511;-61
2022/11/18 07:45:34;;;;;;;1.63;1.10;;;;;;;18.44;52.82;99975.88;5012740;28;20469;-60
2022/11/18 07:48:00;;;;;;;1.80;1.00;;;;;;;18.37;52.78;99964.19;5024434;28;20030;-61
2022/11/18 07:50:25;;;;;;;2.78;1.08;;;;;;;18.47;53.09;99984.38;5014837;28;20022;-60
2022/11/18 07:52:54;;;;;;;2.08;1.20;;;;;;;18.47;52.82;99989.75;5025333;28;20089;-62
2022/11/18 07:55:19;;;;;;;2.53;1.30;;;;;;;18.51;52.76;100000.16;5025552;28;20030;-61
2022/11/18 07:57:44;;;;;;;4.90;1.10;;;;;;;18.51;53.45;99995.63;5024677;28;20379;-61
2022/11/18 08:00:10;;;;;;;1.23;0.90;;;;;;;18.26;52.69;99957.41;5012902;28;20026;-61
2022/11/18 08:02:35;;;;;;;1.35;1.00;;;;;;;18.55;52.92;99998.78;5024841;28;20017;-61
2022/11/18 08:05:00;;;;;;;0.73;0.73;;;;;;;18.49;52.80;99994.97;5022315;28;20034;-61
2022/11/18 08:07:26;;;;;;;3.58;1.10;;;;;;;18.56;52.62;100005.81;5025041;28;20022;-62
2022/11/18 08:09:51;;;;;;;4.07;0.90;;;;;;;18.56;52.85;100009.34;5024475;28;20096;-61
2022/11/18 08:12:16;;;;;;;1.58;0.93;;;;;;;18.57;52.66;100015.59;5024530;28;20036;-62
2022/11/18 08:14:41;;;;;;;1.83;1.00;;;;;;;18.47;52.51;100002.41;5020973;28;20038;-60
2022/11/18 08:17:06;;;;;;;1.60;0.98;;;;;;;18.59;52.53;100024.28;5024381;28;20040;-61
2022/11/18 08:19:35;;;;;;;2.10;1.15;;;;;;;18.59;52.65;100027.81;5019769;28;20064;-59
2022/11/18 08:22:00;;;;;;;3.03;1.20;;;;;;;18.60;52.70;100032.16;5023715;28;20038;-61
2022/11/18 08:24:25;;;;;;;1.52;1.17;;;;;;;18.61;52.44;100033.88;5024406;28;20068;-61
2022/11/18 08:26:50;;;;;;;3.70;1.27;;;;;;;18.55;52.59;100028.38;5023802;28;20025;-60
2022/11/18 08:29:16;;;;;;;1.90;1.02;;;;;;;18.63;52.56;100037.19;5000033;28;20065;-60
2022/11/18 08:31:41;;;;;;;1.15;0.93;;;;;;;18.64;52.33;100041.53;5018427;28;20030;-61
2022/11/18 08:34:06;;;;;;;3.17;1.25;;;;;;;18.66;52.59;100050.28;5021953;28;20113;-60
2022/11/18 08:36:34;;;;;;;2.53;1.10;;;;;;;18.66;52.71;100050.28;5009393;28;20057;-60
2022/11/18 08:39:02;;;;;;;2.50;1.10;;;;;;;18.67;52.64;100054.63;5017701;28;20085;-61
2022/11/18 08:41:36;;;;;;;1.55;1.13;;;;;;;18.68;52.57;100055.47;5011060;28;20050;-63
2022/11/18 08:44:03;;;;;;;1.02;0.90;;;;;;;18.69;52.60;100059.81;5019306;28;20025;-61
2022/11/18 08:46:28;;;;;;;1.27;1.10;;;;;;;18.71;52.60;100064.03;5007494;28;20022;-61
2022/11/18 08:48:53;;;;;;;2.63;0.90;;;;;;;18.75;52.65;100063.69;5016520;28;20765;-61
2022/11/18 08:51:19;;;;;;;1.50;0.90;;;;;;;18.54;52.40;100032.09;4989741;28;20044;-61
2022/11/18 08:53:44;;;;;;;2.05;1.30;;;;;;;18.75;52.52;100067.19;5023502;28;20042;-61
2022/11/18 08:56:17;;;;;;;2.58;1.15;;;;;;;18.73;52.67;100066.53;5020494;28;20044;-58
2022/11/18 08:58:43;;;;;;;1.83;1.20;;;;;;;18.77;52.40;100072.38;5013194;28;20021;-56
2022/11/18 09:01:08;;;;;;;1.67;1.20;;;;;;;18.78;52.78;100079.47;5014868;28;20026;-60
2022/11/18 09:03:34;;;;;;;1.73;1.20;;;;;;;18.70;52.54;100064.25;5013748;28;20029;-59
2022/11/18 09:06:07;;;;;;;1.75;1.02;;;;;;;18.80;52.37;100083.63;4995551;28;20093;-58
2022/11/18 09:08:33;;;;;;;1.75;1.20;;;;;;;18.83;52.55;100088.66;5013310;28;20018;-58
2022/11/18 09:10:58;;;;;;;1.23;0.90;;;;;;;18.79;52.19;100075.75;5014396;28;20025;-58
2022/11/18 09:13:23;;;;;;;2.22;0.82;;;;;;;18.90;52.18;100097.66;5015190;28;20060;-59
2022/11/18 09:15:49;;;;;;;1.40;1.02;;;;;;;18.92;52.00;100092.91;5012969;28;20114;-59
2022/11/18 09:18:14;;;;;;;3.47;1.45;;;;;;;18.93;52.00;100091.03;5014194;28;20026;-58
2022/11/18 09:20:39;;;;;;;2.30;0.80;;;;;;;18.90;51.83;100086.88;5013785;28;20030;-59
2022/11/18 09:23:04;;;;;;;2.05;0.90;;;;;;;18.07;52.11;99952.63;5012713;28;20530;-59
2022/11/18 09:25:29;;;;;;;2.58;1.40;;;;;;;18.96;51.91;100096.88;5013652;28;20088;-59
2022/11/18 09:27:55;;;;;;;2.30;0.90;;;;;;;18.96;52.04;100098.75;5013454;28;20022;-59
2022/11/18 09:30:20;;;;;;;3.38;1.10;;;;;;;18.97;52.11;100103.94;5017848;28;20113;-57
2022/11/18 09:32:45;;;;;;;1.60;1.10;;;;;;;18.97;51.82;100103.94;5023184;28;20116;-60
2022/11/18 09:35:11;;;;;;;2.40;1.55;;;;;;;18.98;51.65;100105.59;5005811;28;20022;-59
2022/11/18 09:37:36;;;;;;;2.70;1.20;;;;;;;18.98;51.82;100110.16;5023702;28;20048;-59
2022/11/18 09:40:01;;;;;;;1.63;0.90;;;;;;;18.97;51.86;100114.72;5024072;28;20086;-60
2022/11/18 09:42:36;;;;;;;2.25;1.10;;;;;;;18.97;52.13;100112.00;5023445;28;20045;-60
2022/11/18 09:45:18;;;;;;;3.30;1.30;;;;;;;18.97;51.90;100117.41;5024144;28;20037;-60
2022/11/18 09:47:44;;;;;;;2.95;1.27;;;;;;;19.00;51.78;100115.38;5006080;28;20669;-60
2022/11/18 09:50:12;;;;;;;5.18;1.10;;;;;;;18.97;51.53;100120.09;5022544;28;20029;-59
2022/11/18 09:52:56;;;;;;;3.33;1.25;;;;;;;19.01;51.89;100120.56;5005661;28;20042;-60
2022/11/18 09:55:22;;;;;;;1.52;1.05;;;;;;;19.02;51.82;100121.41;5023853;28;20426;-60
2022/11/18 09:57:55;;;;;;;4.32;1.20;;;;;;;19.02;51.95;100124.91;5023357;28;20026;-60
2022/11/18 10:00:23;;;;;;;4.63;1.33;;;;;;;18.94;51.78;100117.78;5000495;28;20048;-66
2022/11/18 10:03:06;;;;;;;3.55;1.30;;;;;;;19.05;51.81;100127.25;5016166;28;20054;-61
2022/11/18 10:05:49;;;;;;;5.05;1.20;;;;;;;19.06;51.80;100137.00;5002134;28;20060;-60
2022/11/18 10:08:31;;;;;;;16.33;1.50;;;;;;;19.07;51.93;100130.56;4999866;28;20056;-61
2022/11/18 10:11:01;;;;;;;4.13;1.42;;;;;;;19.11;52.06;100134.56;5003620;28;20026;-60
2022/11/18 10:13:31;;;;;;;1.83;1.17;;;;;;;19.13;51.87;100137.91;4996552;28;20034;-59
2022/11/18 10:16:18;;;;;;;2.35;1.30;;;;;;;19.16;51.86;100139.41;5003733;28;20018;-59
2022/11/18 10:18:54;;;;;;;2.28;1.30;;;;;;;19.10;51.84;100126.69;4995064;28;20033;-61
2022/11/18 10:21:45;;;;;;;3.30;1.20;;;;;;;19.19;51.51;100139.00;5004116;28;20052;-61
2022/11/18 10:24:17;;;;;;;3.13;1.00;;;;;;;19.20;51.54;100141.53;5022464;28;20044;-61
2022/11/18 10:26:42;;;;;;;3.30;1.17;;;;;;;19.19;51.91;100139.00;5004550;28;20032;-61
2022/11/18 10:29:09;;;;;;;1.73;1.10;;;;;;;19.18;51.67;100140.03;5021510;28;20030;-60
2022/11/18 10:31:57;;;;;;;3.50;1.30;;;;;;;19.24;51.68;100147.34;5021144;28;20037;-60
2022/11/18 10:34:23;;;;;;;1.88;1.10;;;;;;;19.26;51.80;100142.63;5012785;28;20735;-60
2022/11/18 10:36:58;;;;;;;3.90;1.42;;;;;;;19.23;51.85;100143.00;5006628;28;20026;-61
2022/11/18 10:39:24;;;;;;;2.47;1.20;;;;;;;19.23;51.56;100137.59;5022932;28;20054;-61
2022/11/18 10:41:57;;;;;;;2.35;1.23;;;;;;;19.29;51.82;100158.44;5021800;28;20034;-55
2022/11/18 10:44:34;;;;;;;1.48;1.23;;;;;;;19.33;51.28;100161.59;5005092;28;20045;-60
2022/11/18 10:47:26;;;;;;;2.13;1.08;;;;;;;19.38;51.37;100162.69;5020952;28;20478;-61
2022/11/18 10:49:53;;;;;;;2.28;1.15;;;;;;;19.36;51.07;100159.31;5021871;28;20029;-59
2022/11/18 10:52:19;;;;;;;1.67;1.20;;;;;;;19.44;51.17;100161.91;5021294;28;20029;-61
2022/11/18 10:54:44;;;;;;;6.57;1.20;;;;;;;19.16;50.83;100120.56;5021515;28;20098;-61
2022/11/18 10:57:09;;;;;;;2.78;1.30;;;;;;;19.48;50.98;100179.38;5021546;28;20022;-60
2022/11/18 10:59:46;;;;;;;2.72;1.08;;;;;;;19.48;50.81;100173.97;5021605;28;20030;-60
2022/11/18 11:02:31;;;;;;;2.95;1.15;;;;;;;19.48;50.89;100175.84;5004027;28;20022;-60
2022/11/18 11:04:57;;;;;;;2.00;1.13;;;;;;;19.38;51.20;100165.38;5018847;28;20056;-60
2022/11/18 11:07:33;;;;;;;1.80;1.10;;;;;;;19.44;51.21;100178.09;5004080;28;20044;-61
2022/11/18 11:10:04;;;;;;;2.00;1.02;;;;;;;19.43;50.92;100180.97;5022733;28;20053;-61
2022/11/18 11:12:49;;;;;;;2.50;1.33;;;;;;;19.43;51.07;100181.81;5022128;28;20021;-59
2022/11/18 11:15:23;;;;;;;1.80;1.08;;;;;;;19.44;51.22;100178.09;5023046;28;20068;-60
2022/11/18 11:18:40;;;;;;;3.47;1.20;;;;;;;19.46;51.16;100178.75;5024540;28;20026;-59
2022/11/18 11:21:12;;;;;;;1.45;1.10;;;;;;;19.44;51.00;100166.47;4983311;28;20128;-60
2022/11/18 11:23:38;;;;;;;2.88;1.20;;;;;;;19.54;51.31;100180.50;4983869;28;20059;-59
2022/11/18 11:26:12;;;;;;;3.53;1.38;;;;;;;19.57;51.07;100182.78;4981474;28;20470;-54
2022/11/18 11:28:44;;;;;;;4.03;1.20;;;;;;;19.60;51.04;100184.28;4964693;28;20109;-53
2022/11/18 11:31:15;;;;;;;2.85;1.30;;;;;;;19.61;51.00;100186.81;4956162;28;20462;-60
2022/11/18 11:34:15;;;;;;;1.73;1.20;;;;;;;19.61;51.16;100191.38;4997066;28;20031;-60
2022/11/18 11:36:46;;;;;;;2.85;0.90;;;;;;;19.61;50.98;100191.38;4980935;28;20039;-59
2022/11/18 11:39:27;;;;;;;2.85;1.05;;;;;;;19.58;51.02;100192.56;4984174;28;20051;-60
2022/11/18 11:42:09;;;;;;;2.40;1.30;;;;;;;19.57;51.13;100198.97;4987444;28;20044;-60
2022/11/18 11:44:37;;;;;;;4.40;1.30;;;;;;;19.59;51.34;100202.31;4989598;28;20027;-60
2022/11/18 11:50:00;;;;;;;1.98;1.02;;;;;;;19.62;51.10;100203.81;4982529;28;20102;-60
2022/11/18 11:52:34;;;;;;;2.97;1.23;;;;;;;19.62;51.54;100207.34;4978047;28;20077;-59
2022/11/18 11:55:11;;;;;;;2.58;1.25;;;;;;;19.66;51.23;100210.50;5000842;28;20042;-59
2022/11/18 11:57:52;;;;;;;2.67;1.25;;;;;;;19.68;51.15;100201.22;5006414;28;20032;-60
2022/11/18 12:00:18;;;;;;;3.67;1.42;;;;;;;19.70;51.38;100209.94;5006567;28;20029;-60